Time;durP1;ratioP1;P1;durP2;ratioP2;P2;SDS_P1;SDS_P2;PMS_P1;PMS_P2;Temp;Humidity;BMP_temperature;BMP_pressure;BME280_temperature;BME280_humidity;BME280_pressure;Samples;Min_cycle;Max_cycle;Signal;HPM_P1;HPM_P2
2023/03/24 00:04:57;;;;;;;2.23;1.70;;;;;11.70;99331.00;;;;9724881;30;20235;-78
2023/03/24 00:09:59;;;;;;;3.60;1.87;;;;;11.70;99329.00;;;;9691837;30;20206;-78
2023/03/24 00:15:03;;;;;;;3.33;1.80;;;;;11.70;99325.00;;;;9732194;30;20273;-78
2023/03/24 00:20:13;;;;;;;5.00;2.13;;;;;11.70;99325.00;;;;9710799;30;20210;-78
2023/03/24 00:25:19;;;;;;;1.93;1.73;;;;;11.70;99304.00;;;;9735151;30;20264;-78
2023/03/24 00:30:22;;;;;;;4.93;1.60;;;;;11.70;99314.00;;;;9740265;30;20210;-78
2023/03/24 00:35:24;;;;;;;4.27;2.00;;;;;11.70;99300.00;;;;9700105;30;20237;-78
2023/03/24 00:40:26;;;;;;;4.30;2.30;;;;;11.80;99295.00;;;;9737436;30;20242;-78
2023/03/24 00:45:33;;;;;;;5.30;2.23;;;;;11.90;99295.00;;;;9723988;30;20202;-79
2023/03/24 00:50:35;;;;;;;4.80;1.77;;;;;11.90;99295.00;;;;9731764;30;20206;-78
2023/03/24 00:55:38;;;;;;;3.03;1.77;;;;;11.90;99270.00;;;;9737924;30;20753;-78
2023/03/24 01:00:40;;;;;;;2.43;2.20;;;;;12.00;99285.00;;;;9726244;30;20250;-78
2023/03/24 01:05:47;;;;;;;3.23;1.93;;;;;12.00;99283.00;;;;9722621;30;20677;-79
2023/03/24 01:10:49;;;;;;;3.40;2.00;;;;;12.00;99270.00;;;;9699707;30;20207;-78
2023/03/24 01:15:53;;;;;;;3.53;1.83;;;;;12.10;99277.00;;;;9740362;30;20210;-78
2023/03/24 01:20:55;;;;;;;2.40;1.80;;;;;12.10;99280.00;;;;9722010;30;20478;-79
2023/03/24 01:25:57;;;;;;;2.20;1.80;;;;;12.20;99273.00;;;;9739041;30;20750;-78
2023/03/24 01:30:59;;;;;;;2.83;1.70;;;;;12.30;99260.00;;;;9739496;30;20179;-78
2023/03/24 01:36:01;;;;;;;3.57;1.93;;;;;12.40;99277.00;;;;9699577;30;20263;-78
2023/03/24 01:41:05;;;;;;;2.07;1.60;;;;;12.60;99270.00;;;;9717327;30;20218;-78
2023/03/24 01:46:20;;;;;;;2.97;1.80;;;;;12.70;99288.00;;;;9695949;30;20288;-79
2023/03/24 01:51:34;;;;;;;2.40;1.90;;;;;12.80;99288.00;;;;9716593;30;20229;-78
2023/03/24 01:56:40;;;;;;;3.87;2.10;;;;;12.80;99305.00;;;;9737479;30;20289;-79
2023/03/24 02:01:43;;;;;;;3.70;1.90;;;;;12.70;99323.00;;;;9709698;30;20203;-79
2023/03/24 02:07:25;;;;;;;3.10;2.33;;;;;12.70;99324.00;;;;9731336;30;20209;-79
2023/03/24 02:12:28;;;;;;;4.17;2.63;;;;;12.50;99319.00;;;;9696670;30;20273;-79
2023/03/24 02:17:56;;;;;;;4.47;2.33;;;;;12.40;99333.00;;;;9711004;30;20218;-79
2023/03/24 02:23:45;;;;;;;5.10;2.10;;;;;12.30;99348.00;;;;9727034;30;20217;-79
2023/03/24 02:29:03;;;;;;;3.10;1.53;;;;;12.00;99380.00;;;;9659623;30;20302;-78
2023/03/24 02:34:43;;;;;;;1.90;0.80;;;;;11.60;99400.00;;;;9713322;30;20690;-79
2023/03/24 02:40:10;;;;;;;4.07;0.80;;;;;11.20;99392.00;;;;9712855;30;20738;-78
2023/03/24 02:45:28;;;;;;;3.47;0.80;;;;;10.90;99389.00;;;;9728025;30;20222;-79
2023/03/24 02:50:55;;;;;;;4.27;1.00;;;;;10.60;99406.00;;;;9694816;30;20625;-79
2023/03/24 02:56:15;;;;;;;3.93;1.07;;;;;10.50;99406.00;;;;9698869;30;20207;-79
2023/03/24 03:01:30;;;;;;;4.97;1.13;;;;;10.40;99428.00;;;;9689426;30;20241;-79
2023/03/24 03:06:57;;;;;;;2.77;0.97;;;;;10.40;99465.00;;;;9701087;30;20203;-79
2023/03/24 03:12:03;;;;;;;5.00;0.80;;;;;10.40;99480.00;;;;9723266;30;20198;-79
2023/03/24 03:17:19;;;;;;;3.73;1.03;;;;;10.40;99491.00;;;;9697682;30;20214;-79
2023/03/24 03:22:27;;;;;;;3.30;1.30;;;;;10.40;99495.00;;;;9707560;30;20335;-78
2023/03/24 03:27:37;;;;;;;5.90;1.10;;;;;10.30;99500.00;;;;9697285;30;20202;-78
2023/03/24 03:32:53;;;;;;;8.70;1.00;;;;;10.10;99512.00;;;;9692505;30;20217;-78
2023/03/24 03:38:18;;;;;;;4.47;1.00;;;;;10.20;99513.00;;;;9707082;30;20214;-78
2023/03/24 03:43:22;;;;;;;6.83;1.70;;;;;10.10;99511.00;;;;9699568;30;20687;-78
2023/03/24 03:48:25;;;;;;;5.53;1.63;;;;;10.00;99516.00;;;;9712502;30;20345;-79
2023/03/24 03:53:35;;;;;;;5.93;1.40;;;;;10.00;99526.00;;;;9705957;30;20289;-79
2023/03/24 03:58:38;;;;;;;9.57;1.50;;;;;10.00;99542.00;;;;9724079;30;20214;-79
2023/03/24 04:04:19;;;;;;;9.47;2.13;;;;;10.10;99544.00;;;;9726003;30;20201;-78
2023/03/24 04:10:06;;;;;;;6.83;1.73;;;;;10.20;99570.00;;;;9694961;30;20214;-78
2023/03/24 04:15:35;;;;;;;6.00;1.60;;;;;10.20;99580.00;;;;9719523;30;20210;-79
2023/03/24 04:21:32;;;;;;;8.47;2.33;;;;;10.20;99582.00;;;;9733408;30;20296;-80
2023/03/24 04:26:53;;;;;;;7.17;1.67;;;;;10.20;99597.00;;;;9693523;30;20309;-79
2023/03/24 04:32:03;;;;;;;14.23;2.33;;;;;10.20;99600.00;;;;9724516;30;20201;-79
2023/03/24 04:37:15;;;;;;;11.17;1.97;;;;;10.20;99602.00;;;;9724879;30;20219;-80
2023/03/24 04:42:47;;;;;;;8.10;1.87;;;;;10.20;99606.00;;;;9718680;30;20238;-80
2023/03/24 04:47:55;;;;;;;7.37;1.90;;;;;10.20;99616.00;;;;9708678;30;20698;-79
2023/03/24 04:53:16;;;;;;;9.87;1.97;;;;;10.20;99628.00;;;;9697723;30;20289;-79
2023/03/24 04:58:20;;;;;;;8.57;1.90;;;;;10.20;99628.00;;;;9724457;30;20225;-79
2023/03/24 05:03:24;;;;;;;13.37;2.00;;;;;10.10;99635.00;;;;9736367;30;20202;-81
2023/03/24 05:08:26;;;;;;;12.43;2.27;;;;;9.90;99632.00;;;;9730501;30;20225;-80
2023/03/24 05:13:28;;;;;;;9.83;2.40;;;;;9.70;99635.00;;;;9724947;30;20205;-80
2023/03/24 05:18:35;;;;;;;9.73;2.47;;;;;9.50;99648.00;;;;9700088;30;20214;-80
2023/03/24 05:23:37;;;;;;;10.03;1.90;;;;;9.30;99655.00;;;;9714197;30;20202;-81
2023/03/24 05:28:39;;;;;;;12.73;2.50;;;;;9.20;99645.00;;;;9730573;30;20207;-80
2023/03/24 05:33:41;;;;;;;10.33;2.43;;;;;9.10;99647.00;;;;9687767;30;20656;-79
2023/03/24 05:38:48;;;;;;;10.70;2.67;;;;;9.10;99651.00;;;;9716369;30;20269;-80
2023/03/24 05:43:50;;;;;;;17.50;3.67;;;;;9.10;99649.00;;;;9717229;30;20241;-79
2023/03/24 05:48:53;;;;;;;7.97;2.27;;;;;9.10;99647.00;;;;9722684;30;20218;-79
2023/03/24 05:53:57;;;;;;;19.13;3.17;;;;;9.20;99655.00;;;;9709439;30;20202;-79
2023/03/24 05:59:05;;;;;;;16.13;3.07;;;;;9.30;99658.00;;;;9703834;30;20587;-79
2023/03/24 06:04:29;;;;;;;11.37;2.53;;;;;9.40;99671.00;;;;9711481;30;20214;-79
2023/03/24 06:09:41;;;;;;;10.03;2.43;;;;;9.50;99687.00;;;;9697002;30;20289;-79
2023/03/24 06:14:46;;;;;;;6.73;2.40;;;;;9.50;99685.00;;;;9727023;30;20215;-79
2023/03/24 06:19:48;;;;;;;17.20;3.00;;;;;9.70;99677.00;;;;9708554;30;20205;-78
2023/03/24 06:25:14;;;;;;;10.03;1.70;;;;;9.70;99690.00;;;;9724061;30;20253;-78
2023/03/24 06:30:21;;;;;;;13.47;3.10;;;;;9.70;99688.00;;;;9717177;30;20209;-78
2023/03/24 06:35:24;;;;;;;8.63;2.40;;;;;10.00;99695.00;;;;9708189;30;20264;-78
2023/03/24 06:40:39;;;;;;;7.70;2.43;;;;;10.40;99683.00;;;;9728407;30;20242;-78
2023/03/24 06:45:44;;;;;;;11.27;2.57;;;;;10.70;99693.00;;;;9712719;30;20210;-78
2023/03/24 06:50:53;;;;;;;15.17;2.50;;;;;10.90;99695.00;;;;9742563;30;20300;-79
2023/03/24 06:55:56;;;;;;;8.13;2.30;;;;;11.40;99704.00;;;;9710089;30;20314;-79
2023/03/24 07:01:01;;;;;;;12.47;2.00;;;;;11.80;99707.00;;;;9698900;30;20758;-79
2023/03/24 07:06:08;;;;;;;8.07;2.50;;;;;11.70;99710.00;;;;9729927;30;20199;-79
2023/03/24 07:11:11;;;;;;;6.03;2.00;;;;;11.70;99721.00;;;;9698408;30;20191;-78
2023/03/24 07:16:20;;;;;;;12.70;2.47;;;;;11.60;99725.00;;;;9694850;30;20242;-79
2023/03/24 07:21:32;;;;;;;15.33;2.73;;;;;12.10;99724.00;;;;9693495;30;20207;-80
2023/03/24 07:26:35;;;;;;;10.97;2.53;;;;;12.90;99722.00;;;;9723805;30;20230;-79
2023/03/24 07:31:57;;;;;;;10.40;1.90;;;;;13.60;99731.00;;;;9709325;30;20213;-80
2023/03/24 07:37:00;;;;;;;9.03;2.13;;;;;13.30;99728.00;;;;9712871;30;20261;-79
2023/03/24 07:42:03;;;;;;;8.93;2.83;;;;;13.80;99745.00;;;;9698769;30;20226;-79
2023/03/24 07:47:24;;;;;;;10.47;2.43;;;;;13.70;99743.00;;;;9757690;30;20210;-78
2023/03/24 07:52:29;;;;;;;9.07;2.00;;;;;13.90;99747.00;;;;9734064;30;20269;-78
2023/03/24 07:57:35;;;;;;;12.60;2.00;;;;;13.40;99749.00;;;;9706553;30;20306;-79
2023/03/24 08:02:41;;;;;;;9.67;1.87;;;;;14.00;99749.00;;;;9706826;30;20221;-78
2023/03/24 08:08:13;;;;;;;8.45;2.30;;;;;14.20;99753.00;;;;9741999;30;20345;-78
2023/03/24 08:13:14;;;;;;;6.53;1.95;;;;;14.10;99756.00;;;;9721489;30;20222;-79
2023/03/24 08:18:22;;;;;;;9.27;2.05;;;;;14.60;99745.00;;;;9731213;30;20238;-78
2023/03/24 08:23:24;;;;;;;10.35;2.30;;;;;14.60;99763.00;;;;9734922;30;20222;-78
2023/03/24 08:28:26;;;;;;;14.25;2.00;;;;;14.50;99762.00;;;;9724603;30;20209;-78
2023/03/24 08:33:28;;;;;;;4.80;1.50;;;;;15.20;99765.00;;;;9725631;30;20289;-79
2023/03/24 08:38:31;;;;;;;7.65;1.63;;;;;15.00;99755.00;;;;9715714;30;20246;-78
2023/03/24 08:43:36;;;;;;;11.35;1.95;;;;;15.20;99766.00;;;;9731942;30;20297;-79
2023/03/24 08:48:42;;;;;;;12.18;2.03;;;;;15.80;99788.00;;;;9714210;30;20668;-79
2023/03/24 08:53:43;;;;;;;9.93;2.08;;;;;15.70;99770.00;;;;9738455;30;20668;-79
2023/03/24 08:58:47;;;;;;;8.98;2.47;;;;;15.80;99776.00;;;;9723081;30;20214;-78
2023/03/24 09:03:49;;;;;;;9.38;2.15;;;;;16.50;99785.00;;;;9705655;30;20210;-79
2023/03/24 09:08:53;;;;;;;10.77;1.83;;;;;16.50;99786.00;;;;9706707;30;20462;-80
2023/03/24 09:13:54;;;;;;;8.50;1.92;;;;;16.40;99796.00;;;;9700555;30;20286;-79
2023/03/24 09:18:56;;;;;;;8.52;2.90;;;;;16.30;99789.00;;;;9689744;30;20239;-78
2023/03/24 09:23:59;;;;;;;8.73;2.08;;;;;16.30;99791.00;;;;9710093;30;20202;-79
2023/03/24 09:29:02;;;;;;;10.43;2.28;;;;;17.00;99770.00;;;;9735457;30;20202;-80
2023/03/24 09:34:04;;;;;;;10.65;2.15;;;;;18.10;99787.00;;;;9710600;30;20959;-79
2023/03/24 09:39:07;;;;;;;6.97;1.77;;;;;17.00;99780.00;;;;9735121;30;20230;-79
2023/03/24 09:44:22;;;;;;;6.85;1.85;;;;;17.00;99787.00;;;;9725927;30;20309;-78
2023/03/24 09:49:29;;;;;;;6.30;2.13;;;;;16.70;99791.00;;;;9718571;30;20236;-80
2023/03/24 09:54:43;;;;;;;11.40;2.05;;;;;16.70;99802.00;;;;9706531;30;20240;-80
2023/03/24 09:59:45;;;;;;;4.80;1.67;;;;;16.30;99793.00;;;;9727543;30;20222;-79
2023/03/24 10:04:48;;;;;;;8.65;2.15;;;;;16.20;99805.00;;;;9709601;30;20221;-79
2023/03/24 10:09:59;;;;;;;5.18;1.63;;;;;16.90;99813.00;;;;9739658;30;20205;-78
2023/03/24 10:15:08;;;;;;;10.07;1.70;;;;;17.30;99818.00;;;;9714570;30;20210;-79
2023/03/24 10:20:25;;;;;;;5.65;1.75;;;;;18.40;99786.00;;;;9716607;30;20328;-79
2023/03/24 10:25:49;;;;;;;7.13;2.22;;;;;17.70;99800.00;;;;9724425;30;20221;-79
2023/03/24 10:30:54;;;;;;;8.20;2.20;;;;;17.00;99803.00;;;;9716615;30;20219;-78
2023/03/24 10:36:10;;;;;;;9.27;1.80;;;;;18.10;99802.00;;;;9731382;30;20488;-78
2023/03/24 10:41:20;;;;;;;10.68;2.95;;;;;18.70;99798.00;;;;9726960;30;20249;-80
2023/03/24 10:46:28;;;;;;;5.05;1.90;;;;;18.90;99805.00;;;;9703044;30;20207;-80
2023/03/24 10:51:35;;;;;;;13.55;2.13;;;;;20.00;99800.00;;;;9694239;30;20736;-80
2023/03/24 10:56:39;;;;;;;5.53;1.48;;;;;18.00;99801.00;;;;9704615;30;20234;-80
2023/03/24 11:01:41;;;;;;;9.40;1.98;;;;;16.80;99795.00;;;;9706176;30;20215;-79
2023/03/24 11:07:16;;;;;;;5.07;1.58;;;;;16.60;99800.00;;;;9730789;30;20207;-78
2023/03/24 11:12:27;;;;;;;10.05;1.83;;;;;18.80;99796.00;;;;9732197;30;20229;-79
2023/03/24 11:17:29;;;;;;;5.55;1.58;;;;;17.60;99802.00;;;;9735007;30;20214;-79
2023/03/24 11:22:32;;;;;;;5.18;1.90;;;;;17.30;99803.00;;;;9743757;30;20207;-79
2023/03/24 11:27:41;;;;;;;6.57;1.73;;;;;17.70;99781.00;;;;9730153;30;20268;-79
2023/03/24 11:32:46;;;;;;;8.07;2.45;;;;;19.00;99799.00;;;;9746282;30;20290;-79
2023/03/24 11:37:49;;;;;;;6.32;1.50;;;;;20.30;99778.00;;;;9701711;30;20314;-79
2023/03/24 11:42:56;;;;;;;7.63;2.10;;;;;20.10;99787.00;;;;9718544;30;20249;-80
2023/03/24 11:48:01;;;;;;;7.50;2.03;;;;;20.50;99789.00;;;;9742805;30;20222;-81
2023/03/24 11:53:12;;;;;;;7.07;2.03;;;;;19.90;99790.00;;;;9732137;30;20205;-79
2023/03/24 11:58:32;;;;;;;7.82;1.95;;;;;20.10;99775.00;;;;9713539;30;20297;-80
2023/03/24 12:03:43;;;;;;;8.77;1.63;;;;;21.50;99780.00;;;;9746709;30;20207;-81
2023/03/24 12:09:07;;;;;;;7.68;2.38;;;;;21.10;99780.00;;;;9677481;30;20218;-80
2023/03/24 12:14:09;;;;;;;10.82;1.80;;;;;22.30;99764.00;;;;9713391;30;20211;-80
2023/03/24 12:19:33;;;;;;;9.38;2.10;;;;;20.20;99758.00;;;;9729849;30;20241;-80
2023/03/24 12:25:02;;;;;;;6.80;1.65;;;;;19.40;99772.00;;;;9721885;30;20202;-79
2023/03/24 12:30:16;;;;;;;8.95;1.88;;;;;17.30;99769.00;;;;9708439;30;20202;-79
2023/03/24 12:35:55;;;;;;;10.20;1.70;;;;;18.30;99764.00;;;;9723189;30;20260;-80
2023/03/24 12:41:13;;;;;;;8.00;2.03;;;;;18.80;99763.00;;;;9701063;30;20246;-80
2023/03/24 12:46:21;;;;;;;7.78;2.10;;;;;18.10;99766.00;;;;9730417;30;20202;-78
2023/03/24 12:51:36;;;;;;;9.77;2.33;;;;;18.60;99745.00;;;;9711932;30;20540;-79
2023/03/24 12:56:54;;;;;;;13.88;2.10;;;;;18.00;99738.00;;;;9739474;30;20230;-78
2023/03/24 13:02:11;;;;;;;7.25;1.88;;;;;17.70;99751.00;;;;9718613;30;20253;-77
2023/03/24 13:07:20;;;;;;;6.47;1.80;;;;;16.60;99765.00;;;;9767987;30;20295;-78
2023/03/24 13:12:30;;;;;;;4.70;1.13;;;;;16.00;99774.00;;;;9706971;30;20236;-78
2023/03/24 13:17:37;;;;;;;2.88;0.95;;;;;15.10;99784.00;;;;9709582;30;20218;-76
2023/03/24 13:22:41;;;;;;;8.57;1.33;;;;;14.50;99778.00;;;;9722632;30;20206;-76
2023/03/24 13:27:46;;;;;;;5.68;1.63;;;;;16.70;99771.00;;;;9720342;30;20225;-77
2023/03/24 13:33:03;;;;;;;3.08;0.93;;;;;19.40;99772.00;;;;9721394;30;20194;-77
2023/03/24 13:38:16;;;;;;;3.47;1.02;;;;;21.40;99758.00;;;;9718680;30;20254;-77
2023/03/24 13:43:23;;;;;;;5.65;1.20;;;;;21.00;99755.00;;;;9717688;30;20217;-77
2023/03/24 13:48:28;;;;;;;6.53;1.60;;;;;22.70;99742.00;;;;9714125;30;20198;-78
2023/03/24 13:53:37;;;;;;;7.05;1.73;;;;;20.20;99772.00;;;;9725059;30;20239;-77
2023/03/24 13:58:57;;;;;;;6.40;1.40;;;;;17.70;99772.00;;;;9727867;30;20306;-77
2023/03/24 14:04:18;;;;;;;7.93;1.80;;;;;17.60;99771.00;;;;9731370;30;20260;-76
2023/03/24 14:09:28;;;;;;;6.78;1.90;;;;;18.20;99719.00;;;;9724042;30;20290;-76
2023/03/24 14:14:36;;;;;;;4.35;1.70;;;;;19.60;99727.00;;;;9729191;30;20198;-76
2023/03/24 14:19:40;;;;;;;4.47;1.50;;;;;20.80;99742.00;;;;9718304;30;20512;-77
2023/03/24 14:24:45;;;;;;;4.50;1.50;;;;;16.90;99750.00;;;;9717777;30;20225;-77
2023/03/24 14:29:50;;;;;;;6.35;1.77;;;;;17.20;99746.00;;;;9712985;30;20202;-77
2023/03/24 14:34:56;;;;;;;8.07;2.10;;;;;17.10;99749.00;;;;9713370;30;20213;-77
2023/03/24 14:39:59;;;;;;;4.90;1.60;;;;;17.40;99744.00;;;;9717088;30;20658;-76
2023/03/24 14:45:25;;;;;;;6.65;1.95;;;;;19.20;99694.00;;;;9744602;30;20214;-77
2023/03/24 14:50:28;;;;;;;4.65;1.40;;;;;20.40;99710.00;;;;9740605;30;20297;-79
2023/03/24 14:55:30;;;;;;;7.82;1.80;;;;;19.70;99748.00;;;;9720813;30;20280;-79
2023/03/24 15:00:54;;;;;;;6.47;1.60;;;;;16.90;99725.00;;;;9717682;30;20198;-80
2023/03/24 15:06:16;;;;;;;5.43;1.50;;;;;20.10;99704.00;;;;9711616;30;20197;-80
2023/03/24 15:11:23;;;;;;;2.88;1.27;;;;;21.70;99713.00;;;;9718362;30;20212;-80
2023/03/24 15:16:30;;;;;;;4.68;1.13;;;;;19.80;99723.00;;;;9706665;30;20226;-80
2023/03/24 15:21:37;;;;;;;3.35;1.25;;;;;19.40;99714.00;;;;9730259;30;20300;-79
2023/03/24 15:26:40;;;;;;;6.80;1.52;;;;;18.60;99726.00;;;;9712289;30;20202;-81
2023/03/24 15:31:42;;;;;;;6.10;1.17;;;;;20.60;99695.00;;;;9707946;30;20807;-81
2023/03/24 15:36:45;;;;;;;5.50;1.30;;;;;19.40;99704.00;;;;9695550;30;20238;-82
2023/03/24 15:41:50;;;;;;;5.18;1.00;;;;;19.90;99680.00;;;;9695369;30;20699;-82
2023/03/24 15:46:58;;;;;;;5.40;1.15;;;;;20.10;99682.00;;;;9717163;30;20917;-82
2023/03/24 15:52:20;;;;;;;4.05;0.80;;;;;18.20;99692.00;;;;9706176;30;20272;-81
2023/03/24 15:57:24;;;;;;;3.47;0.90;;;;;18.00;99691.00;;;;9717749;30;20220;-82
2023/03/24 16:03:00;;;;;;;6.63;1.60;;;;;16.50;99703.00;;;;9704323;30;20210;-81
2023/03/24 16:08:06;;;;;;;3.53;1.55;;;;;15.80;99692.00;;;;9699053;30;20206;-80
2023/03/24 16:13:20;;;;;;;4.82;1.15;;;;;15.00;99708.00;;;;9716884;30;20214;-81
2023/03/24 16:18:32;;;;;;;4.05;1.15;;;;;14.80;99721.00;;;;9713466;30;20219;-81
2023/03/24 16:23:35;;;;;;;3.28;1.00;;;;;14.00;99709.00;;;;9700021;30;20207;-81
2023/03/24 16:28:37;;;;;;;2.45;0.68;;;;;13.80;99707.00;;;;9713685;30;20191;-81
2023/03/24 16:33:39;;;;;;;2.47;0.93;;;;;13.90;99698.00;;;;9717799;30;20229;-81
2023/03/24 16:38:41;;;;;;;5.63;1.57;;;;;13.80;99700.00;;;;9717773;30;20301;-82
2023/03/24 16:43:44;;;;;;;2.63;0.80;;;;;13.70;99702.00;;;;9702012;30;20214;-80
2023/03/24 16:48:46;;;;;;;6.70;1.33;;;;;13.70;99706.00;;;;9694543;30;20736;-80
2023/03/24 16:53:49;;;;;;;6.47;1.70;;;;;13.60;99711.00;;;;9707683;30;20651;-80
2023/03/24 16:58:53;;;;;;;4.73;1.20;;;;;13.40;99719.00;;;;9686154;30;20238;-80
2023/03/24 17:03:57;;;;;;;4.33;1.53;;;;;13.20;99699.00;;;;9690583;30;20233;-81
2023/03/24 17:09:00;;;;;;;3.67;1.33;;;;;12.80;99730.00;;;;9729662;30;20277;-82
2023/03/24 17:14:04;;;;;;;3.70;1.00;;;;;12.60;99737.00;;;;9693351;30;20218;-81
2023/03/24 17:19:06;;;;;;;3.33;0.90;;;;;12.50;99745.00;;;;9687729;30;20238;-81
2023/03/24 17:24:09;;;;;;;1.57;0.60;;;;;12.30;99764.00;;;;9743443;30;20203;-80
2023/03/24 17:29:12;;;;;;;2.20;0.60;;;;;12.10;99783.00;;;;9692303;30;20238;-81
2023/03/24 17:34:16;;;;;;;1.80;0.50;;;;;11.90;99788.00;;;;9714697;30;20268;-81
2023/03/24 17:39:21;;;;;;;0.87;0.70;;;;;11.80;99786.00;;;;9715277;30;20666;-81
2023/03/24 17:44:24;;;;;;;1.57;0.80;;;;;11.70;99796.00;;;;9710753;30;20221;-81
2023/03/24 17:49:26;;;;;;;1.10;0.47;;;;;11.50;99792.00;;;;9758619;30;20281;-80
2023/03/24 17:54:29;;;;;;;1.03;0.50;;;;;11.50;99795.00;;;;9727565;30;20296;-80
2023/03/24 17:59:32;;;;;;;1.87;0.70;;;;;11.30;99788.00;;;;9727154;30;20206;-81
2023/03/24 18:04:35;;;;;;;1.00;0.57;;;;;11.00;99791.00;;;;9715225;30;20214;-80
2023/03/24 18:09:37;;;;;;;1.97;0.77;;;;;10.80;99801.00;;;;9710261;30;20207;-81
2023/03/24 18:14:39;;;;;;;1.23;0.60;;;;;10.70;99809.00;;;;9740717;30;20233;-80
2023/03/24 18:19:41;;;;;;;2.23;0.73;;;;;10.50;99818.00;;;;9727633;30;20218;-81
2023/03/24 18:24:43;;;;;;;2.87;0.70;;;;;10.30;99809.00;;;;9706144;30;20688;-81
2023/03/24 18:29:45;;;;;;;2.37;0.90;;;;;10.20;99827.00;;;;9679517;30;20204;-80
2023/03/24 18:34:48;;;;;;;1.50;0.73;;;;;10.20;99817.00;;;;9719911;30;20305;-80
2023/03/24 18:39:49;;;;;;;1.53;0.80;;;;;10.20;99812.00;;;;9719244;30;20714;-80
2023/03/24 18:44:52;;;;;;;1.60;0.80;;;;;10.10;99822.00;;;;9754737;30;20206;-79
2023/03/24 18:49:54;;;;;;;3.97;1.07;;;;;10.00;99824.00;;;;9705720;30;20199;-80
2023/03/24 18:54:56;;;;;;;2.93;1.30;;;;;9.80;99827.00;;;;9732420;30;20200;-79
2023/03/24 18:59:59;;;;;;;5.23;1.53;;;;;9.60;99822.00;;;;9701666;30;20215;-80
2023/03/24 19:05:02;;;;;;;1.73;1.30;;;;;9.50;99819.00;;;;9699707;30;20199;-80
2023/03/24 19:10:05;;;;;;;2.30;0.90;;;;;9.50;99826.00;;;;9709764;30;20199;-79
2023/03/24 19:15:08;;;;;;;3.73;1.63;;;;;9.50;99819.00;;;;9695500;30;20275;-80
2023/03/24 19:20:10;;;;;;;3.50;1.20;;;;;9.50;99821.00;;;;9722474;30;20239;-79
2023/03/24 19:25:16;;;;;;;2.67;0.70;;;;;9.70;99824.00;;;;9716567;30;20722;-78
2023/03/24 19:30:18;;;;;;;2.03;0.90;;;;;9.80;99824.00;;;;9729960;30;20298;-79
2023/03/24 19:35:21;;;;;;;2.33;1.03;;;;;9.90;99824.00;;;;9724933;30;20766;-81
2023/03/24 19:40:22;;;;;;;3.13;1.43;;;;;10.00;99819.00;;;;9715968;30;21023;-79
2023/03/24 19:45:25;;;;;;;5.27;2.00;;;;;9.90;99826.00;;;;9741137;30;20301;-80
2023/03/24 19:50:27;;;;;;;4.33;1.83;;;;;9.90;99823.00;;;;9731552;30;20198;-79
2023/03/24 19:55:29;;;;;;;9.17;2.80;;;;;9.80;99822.00;;;;9715404;30;20198;-80
2023/03/24 20:00:32;;;;;;;6.60;2.77;;;;;9.80;99825.00;;;;9714810;30;20312;-79
2023/03/24 20:05:35;;;;;;;5.53;3.03;;;;;9.80;99828.00;;;;9706025;30;20918;-79
2023/03/24 20:10:38;;;;;;;9.67;3.13;;;;;9.90;99826.00;;;;9729459;30;20273;-80
2023/03/24 20:15:41;;;;;;;4.73;2.63;;;;;10.00;99854.00;;;;9742228;30;20229;-77
2023/03/24 20:20:43;;;;;;;4.03;2.10;;;;;9.60;99866.00;;;;9730085;30;20214;-77
2023/03/24 20:25:45;;;;;;;5.53;2.20;;;;;9.20;99870.00;;;;9711040;30;20664;-77
2023/03/24 20:30:47;;;;;;;2.40;1.10;;;;;8.90;99855.00;;;;9725932;30;20216;-78
2023/03/24 20:35:49;;;;;;;2.33;1.20;;;;;8.70;99864.00;;;;9699371;30;20238;-77
2023/03/24 20:41:10;;;;;;;5.17;1.20;;;;;8.60;99851.00;;;;9698469;30;20692;-77
2023/03/24 20:46:15;;;;;;;4.87;1.63;;;;;8.60;99860.00;;;;9689215;30;20314;-77
2023/03/24 20:51:18;;;;;;;3.03;1.67;;;;;8.60;99859.00;;;;9712767;30;20287;-77
2023/03/24 20:56:20;;;;;;;4.80;1.60;;;;;8.70;99852.00;;;;9713391;30;20208;-76
2023/03/24 21:01:23;;;;;;;3.43;1.80;;;;;8.70;99857.00;;;;9718463;30;20223;-77
2023/03/24 21:06:25;;;;;;;6.47;2.13;;;;;8.80;99859.00;;;;9718794;30;20201;-78
2023/03/24 21:11:30;;;;;;;4.10;2.13;;;;;8.90;99851.00;;;;9729917;30;20202;-76
2023/03/24 21:16:36;;;;;;;4.00;1.70;;;;;8.90;99849.00;;;;9712424;30;20301;-77
2023/03/24 21:21:41;;;;;;;1.97;1.23;;;;;8.90;99853.00;;;;9729001;30;20202;-77
2023/03/24 21:26:48;;;;;;;4.53;1.07;;;;;8.90;99849.00;;;;9702899;30;20215;-77
2023/03/24 21:31:50;;;;;;;3.23;1.17;;;;;8.80;99854.00;;;;9720460;30;20711;-78
2023/03/24 21:36:54;;;;;;;2.13;0.87;;;;;8.80;99847.00;;;;9699778;30;20249;-77
2023/03/24 21:41:56;;;;;;;7.50;1.27;;;;;8.80;99844.00;;;;9719366;30;20298;-77
2023/03/24 21:46:59;;;;;;;3.13;1.10;;;;;8.90;99851.00;;;;9737252;30;20198;-77
2023/03/24 21:52:02;;;;;;;5.03;1.20;;;;;8.90;99844.00;;;;9729071;30;20202;-78
2023/03/24 21:57:05;;;;;;;4.60;1.27;;;;;8.80;99831.00;;;;9700244;30;20223;-78
2023/03/24 22:02:13;;;;;;;5.43;2.00;;;;;8.80;99824.00;;;;9727419;30;20570;-77
2023/03/24 22:07:21;;;;;;;4.10;1.00;;;;;8.80;99838.00;;;;9700065;30;20198;-78
2023/03/24 22:12:23;;;;;;;7.20;1.60;;;;;8.70;99820.00;;;;9721502;30;20236;-77
2023/03/24 22:17:25;;;;;;;2.83;1.30;;;;;8.80;99818.00;;;;9736813;30;20245;-77
2023/03/24 22:22:27;;;;;;;5.00;1.17;;;;;8.90;99818.00;;;;9706369;30;20230;-78
2023/03/24 22:27:29;;;;;;;5.47;1.27;;;;;9.00;99820.00;;;;9697763;30;20242;-78
2023/03/24 22:32:31;;;;;;;3.03;1.37;;;;;9.00;99818.00;;;;9698019;30;20200;-78
2023/03/24 22:37:34;;;;;;;3.43;1.10;;;;;9.00;99828.00;;;;9716380;30;20213;-77
2023/03/24 22:42:36;;;;;;;3.53;1.00;;;;;8.80;99826.00;;;;9732646;30;20241;-78
2023/03/24 22:47:38;;;;;;;7.40;1.47;;;;;8.60;99829.00;;;;9719203;30;20209;-77
2023/03/24 22:52:40;;;;;;;4.80;1.53;;;;;8.60;99833.00;;;;9698035;30;20211;-77
2023/03/24 22:57:42;;;;;;;3.17;1.33;;;;;8.60;99826.00;;;;9716518;30;20216;-78
2023/03/24 23:02:44;;;;;;;8.60;1.20;;;;;8.60;99826.00;;;;9733818;30;20226;-77
2023/03/24 23:07:47;;;;;;;5.60;1.53;;;;;8.70;99835.00;;;;9727450;30;20206;-78
2023/03/24 23:12:51;;;;;;;4.60;1.43;;;;;8.70;99825.00;;;;9696075;30;20692;-78
2023/03/24 23:17:53;;;;;;;8.30;1.43;;;;;8.60;99830.00;;;;9733527;30;20211;-78
2023/03/24 23:22:56;;;;;;;3.07;1.10;;;;;8.50;99837.00;;;;9712835;30;20237;-77
2023/03/24 23:27:58;;;;;;;3.43;1.20;;;;;8.60;99842.00;;;;9696895;30;20690;-78
2023/03/24 23:33:02;;;;;;;1.40;0.80;;;;;8.70;99836.00;;;;9715096;30;20221;-78
2023/03/24 23:38:05;;;;;;;1.20;0.80;;;;;8.80;99839.00;;;;9693535;30;20333;-78
2023/03/24 23:43:07;;;;;;;5.13;1.17;;;;;8.80;99832.00;;;;9722062;30;20263;-79
2023/03/24 23:48:09;;;;;;;3.37;1.13;;;;;8.80;99836.00;;;;9756094;30;20198;-78
2023/03/24 23:53:11;;;;;;;3.57;0.73;;;;;8.80;99841.00;;;;9710599;30;20211;-78
2023/03/24 23:58:13;;;;;;;3.87;1.30;;;;;8.70;99836.00;;;;9720752;30;20223;-78
